createdAt,value
2018-08-22T00:02:24.342Z,5.40
2018-08-22T00:04:53.664Z,6.50
2018-08-22T00:07:23.170Z,5.30
2018-08-22T00:09:52.597Z,5.57
2018-08-22T00:12:21.962Z,6.13
2018-08-22T00:14:51.504Z,5.33
2018-08-22T00:17:20.966Z,5.73
2018-08-22T00:19:57.168Z,6.00
2018-08-22T00:22:26.631Z,5.77
2018-08-22T00:24:56.075Z,6.43
2018-08-22T00:27:25.579Z,6.13
2018-08-22T00:29:54.933Z,6.60
2018-08-22T00:32:24.432Z,6.30
2018-08-22T00:34:53.910Z,6.20
2018-08-22T00:37:23.701Z,6.27
2018-08-22T00:39:53.104Z,6.10
2018-08-22T00:42:22.502Z,6.20
2018-08-22T00:44:51.765Z,7.00
2018-08-22T00:47:21.041Z,6.50
2018-08-22T00:49:50.402Z,6.30
2018-08-22T00:52:19.909Z,7.00
2018-08-22T00:54:49.169Z,7.17
2018-08-22T00:57:18.610Z,7.27
2018-08-22T00:59:47.923Z,6.43
2018-08-22T01:02:17.412Z,6.70
2018-08-22T01:04:46.815Z,7.47
2018-08-22T01:07:16.216Z,6.60
2018-08-22T01:09:45.618Z,6.70
2018-08-22T01:12:15.023Z,7.20
2018-08-22T01:14:44.525Z,6.50
2018-08-22T01:17:15.014Z,6.97
2018-08-22T01:19:44.655Z,7.70
2018-08-22T01:22:14.268Z,7.50
2018-08-22T01:24:43.877Z,7.57
2018-08-22T01:27:18.447Z,7.20
2018-08-22T01:29:48.003Z,7.37
2018-08-22T01:32:17.511Z,7.03
2018-08-22T01:34:47.067Z,7.00
2018-08-22T01:37:16.806Z,7.63
2018-08-22T01:39:46.825Z,7.67
2018-08-22T01:42:16.445Z,7.40
2018-08-22T01:44:48.466Z,7.60
2018-08-22T01:47:18.015Z,7.20
2018-08-22T01:49:47.519Z,6.83
2018-08-22T01:52:16.921Z,7.20
2018-08-22T01:54:46.527Z,6.80
2018-08-22T01:57:15.864Z,5.90
2018-08-22T01:59:45.538Z,6.30
2018-08-22T02:02:15.164Z,6.17
2018-08-22T02:04:44.563Z,6.50
2018-08-22T02:07:14.050Z,6.13
2018-08-22T02:09:43.621Z,6.90
2018-08-22T02:12:13.162Z,6.53
2018-08-22T02:14:42.665Z,6.63
2018-08-22T02:17:12.169Z,6.33
2018-08-22T02:19:41.777Z,6.40
2018-08-22T02:22:11.390Z,6.47
2018-08-22T02:24:40.786Z,6.40
2018-08-22T02:27:10.234Z,6.20
2018-08-22T02:29:39.694Z,5.90
2018-08-22T02:32:09.202Z,5.43
2018-08-22T02:34:39.726Z,6.33
2018-08-22T02:37:09.332Z,6.00
2018-08-22T02:39:38.735Z,5.43
2018-08-22T02:42:08.140Z,5.63
2018-08-22T02:44:37.599Z,5.43
2018-08-22T02:47:07.091Z,6.07
2018-08-22T02:49:36.549Z,5.50
2018-08-22T02:52:05.942Z,5.70
2018-08-22T02:54:35.382Z,6.10
2018-08-22T02:57:04.754Z,5.93
2018-08-22T02:59:35.383Z,6.67
2018-08-22T03:02:05.092Z,6.17
2018-08-22T03:04:34.497Z,5.90
2018-08-22T03:07:04.002Z,6.53
2018-08-22T03:09:33.402Z,6.33
2018-08-22T03:12:02.908Z,6.43
2018-08-22T03:14:32.513Z,6.10
2018-08-22T03:17:01.960Z,6.90
2018-08-22T03:19:31.317Z,6.70
2018-08-22T03:22:01.025Z,7.50
2018-08-22T03:24:30.637Z,7.30
2018-08-22T03:27:00.138Z,8.70
2018-08-22T03:29:29.638Z,8.30
2018-08-22T03:31:59.254Z,7.43
2018-08-22T03:34:28.751Z,7.63
2018-08-22T03:36:58.206Z,8.43
2018-08-22T03:39:27.661Z,7.97
2018-08-22T03:41:57.108Z,7.00
2018-08-22T03:44:26.412Z,6.90
2018-08-22T03:46:55.865Z,6.90
2018-08-22T03:49:25.267Z,6.83
2018-08-22T03:51:54.668Z,6.63
2018-08-22T03:54:24.173Z,6.70
2018-08-22T03:56:53.523Z,8.20
2018-08-22T03:59:22.980Z,7.93
2018-08-22T04:01:52.319Z,8.10
2018-08-22T04:04:21.780Z,8.50
2018-08-22T04:06:51.284Z,9.03
2018-08-22T04:09:20.790Z,8.90
2018-08-22T04:11:50.272Z,8.00
2018-08-22T04:14:19.696Z,7.70
2018-08-22T04:16:49.200Z,7.67
2018-08-22T04:19:18.703Z,6.83
2018-08-22T04:21:48.939Z,8.90
2018-08-22T04:24:18.377Z,8.70
2018-08-22T04:26:47.836Z,8.97
2018-08-22T04:29:17.339Z,8.50
2018-08-22T04:31:46.687Z,7.53
2018-08-22T04:34:16.142Z,7.17
2018-08-22T04:36:45.545Z,7.57
2018-08-22T04:39:16.078Z,7.60
2018-08-22T04:41:46.500Z,7.97
2018-08-22T04:44:16.104Z,7.13
2018-08-22T04:46:45.574Z,7.67
2018-08-22T04:49:16.367Z,8.30
2018-08-22T04:51:45.729Z,8.47
2018-08-22T04:54:15.145Z,8.00
2018-08-22T04:56:44.547Z,8.13
2018-08-22T04:59:13.949Z,8.60
2018-08-22T05:01:43.182Z,9.10
2018-08-22T05:04:12.588Z,8.60
2018-08-22T05:06:41.846Z,8.00
2018-08-22T05:09:11.557Z,7.47
2018-08-22T05:11:41.881Z,7.60
2018-08-22T05:14:11.282Z,7.53
2018-08-22T05:16:40.581Z,8.07
2018-08-22T05:19:10.261Z,8.47
2018-08-22T05:24:04.386Z,8.20
2018-08-22T05:26:33.869Z,8.37
2018-08-22T05:29:03.292Z,7.90
2018-08-22T05:31:32.595Z,8.07
2018-08-22T05:34:01.844Z,7.33
2018-08-22T05:36:31.191Z,8.23
2018-08-22T05:39:00.594Z,7.50
2018-08-22T05:41:30.305Z,7.60
2018-08-22T05:43:59.659Z,6.13
2018-08-22T05:46:29.003Z,5.70
2018-08-22T05:48:58.404Z,5.60
2018-08-22T05:51:27.708Z,5.30
2018-08-22T05:53:57.312Z,5.10
2018-08-22T05:56:26.714Z,5.10
2018-08-22T05:58:56.116Z,5.10
2018-08-22T06:01:25.521Z,5.27
2018-08-22T06:03:54.923Z,4.93
2018-08-22T06:06:24.146Z,4.70
2018-08-22T06:08:53.626Z,4.80
2018-08-22T06:11:23.738Z,4.50
2018-08-22T06:13:53.243Z,4.80
2018-08-22T06:16:22.645Z,4.70
2018-08-22T06:18:52.151Z,4.00
2018-08-22T06:21:21.551Z,4.60
2018-08-22T06:23:52.285Z,4.13
2018-08-22T06:26:21.687Z,4.00
2018-08-22T06:28:51.092Z,4.40
2018-08-22T06:31:20.323Z,4.20
2018-08-22T06:33:49.547Z,3.73
2018-08-22T06:36:18.791Z,4.40
2018-08-22T06:38:48.185Z,4.20
2018-08-22T06:41:17.587Z,4.50
2018-08-22T06:43:51.187Z,4.50
2018-08-22T06:46:20.692Z,4.10
2018-08-22T06:48:50.087Z,4.20
2018-08-22T06:51:19.325Z,4.23
2018-08-22T06:53:48.899Z,4.10
2018-08-22T06:56:18.301Z,3.80
2018-08-22T06:58:47.702Z,3.77
2018-08-22T07:01:17.105Z,4.00
2018-08-22T07:03:46.558Z,4.00
2018-08-22T07:06:15.806Z,4.40
2018-08-22T07:08:45.208Z,3.50
2018-08-22T07:11:15.200Z,4.10
2018-08-22T07:13:44.730Z,3.87
2018-08-22T07:16:14.130Z,3.90
2018-08-22T07:18:43.537Z,4.07
2018-08-22T07:21:12.935Z,3.87
2018-08-22T07:23:42.336Z,4.13
2018-08-22T07:26:11.946Z,3.83
2018-08-22T07:28:41.755Z,4.50
2018-08-22T07:31:11.157Z,3.93
2018-08-22T07:33:40.669Z,3.60
2018-08-22T07:36:10.169Z,4.00
2018-08-22T07:38:39.468Z,4.03
2018-08-22T07:41:09.072Z,4.00
2018-08-22T07:43:38.521Z,3.92
2018-08-22T07:46:08.044Z,3.60
2018-08-22T07:48:38.130Z,4.22
2018-08-22T07:51:07.726Z,3.70
2018-08-22T07:53:37.213Z,3.98
2018-08-22T07:56:07.352Z,3.85
2018-08-22T07:58:36.855Z,3.80
2018-08-22T08:01:06.371Z,3.98
2018-08-22T08:03:35.962Z,3.60
2018-08-22T08:06:05.687Z,3.80
2018-08-22T08:08:35.601Z,4.22
2018-08-22T08:11:05.487Z,3.47
2018-08-22T08:13:35.198Z,3.70
2018-08-22T08:16:05.850Z,3.30
2018-08-22T08:18:35.663Z,3.30
2018-08-22T08:21:05.675Z,3.60
2018-08-22T08:23:35.095Z,3.10
2018-08-22T08:26:04.927Z,3.52
2018-08-22T08:28:35.189Z,3.25
2018-08-22T08:31:05.137Z,2.95
2018-08-22T08:33:34.930Z,3.05
2018-08-22T08:36:05.049Z,3.40
2018-08-22T08:38:34.725Z,2.90
2018-08-22T08:41:04.578Z,3.10
2018-08-22T08:43:35.032Z,3.30
2018-08-22T08:46:05.331Z,3.10
2018-08-22T08:48:35.545Z,3.10
2018-08-22T08:51:05.373Z,3.20
2018-08-22T08:53:35.296Z,2.75
2018-08-22T08:56:04.991Z,2.90
2018-08-22T08:58:35.599Z,3.05
2018-08-22T09:01:06.497Z,3.37
2018-08-22T09:03:37.153Z,3.20
2018-08-22T09:06:07.808Z,3.15
2018-08-22T09:08:37.830Z,3.00
2018-08-22T09:11:08.251Z,3.00
2018-08-22T09:13:44.320Z,2.92
2018-08-22T09:16:15.141Z,3.15
2018-08-22T09:18:45.147Z,3.27
2018-08-22T09:21:14.986Z,3.02
2018-08-22T09:23:45.764Z,3.00
2018-08-22T09:26:15.653Z,3.08
2018-08-22T09:28:45.674Z,3.02
2018-08-22T09:31:18.497Z,2.98
2018-08-22T09:33:49.349Z,2.40
2018-08-22T09:36:19.280Z,2.70
2018-08-22T09:38:49.276Z,2.90
2018-08-22T09:41:19.336Z,3.10
2018-08-22T09:43:49.225Z,2.75
2018-08-22T09:46:19.348Z,2.95
2018-08-22T09:48:49.778Z,2.75
2018-08-22T09:51:19.475Z,3.02
2018-08-22T09:53:49.210Z,3.00
2018-08-22T09:56:19.146Z,3.12
2018-08-22T09:58:49.147Z,3.25
2018-08-22T10:01:28.123Z,3.62
2018-08-22T10:04:00.172Z,3.02
2018-08-22T10:06:34.324Z,2.75
2018-08-22T10:09:08.840Z,3.15
2018-08-22T10:11:38.612Z,2.77
2018-08-22T10:14:08.546Z,2.80
2018-08-22T10:16:38.474Z,3.20
2018-08-22T10:19:08.275Z,3.12
2018-08-22T10:21:38.104Z,3.10
2018-08-22T10:24:08.241Z,2.75
2018-08-22T10:26:38.377Z,2.87
2018-08-22T10:29:09.238Z,3.10
2018-08-22T10:31:39.014Z,3.12
2018-08-22T10:34:08.911Z,2.85
2018-08-22T10:36:39.019Z,2.90
2018-08-22T10:39:09.794Z,3.08
2018-08-22T10:41:39.599Z,3.00
2018-08-22T10:44:09.315Z,2.85
2018-08-22T10:46:39.893Z,2.85
2018-08-22T10:49:09.508Z,3.00
2018-08-22T10:51:39.557Z,3.10
2018-08-22T10:54:10.244Z,3.27
2018-08-22T10:56:40.079Z,3.00
2018-08-22T10:59:09.758Z,3.42
2018-08-22T11:01:39.403Z,3.08
2018-08-22T11:04:09.223Z,3.50
2018-08-22T11:06:39.027Z,3.35
2018-08-22T11:09:10.060Z,3.17
2018-08-22T11:11:39.780Z,3.35
2018-08-22T11:14:10.336Z,3.17
2018-08-22T11:16:40.229Z,3.05
2018-08-22T11:19:09.825Z,3.10
2018-08-22T11:21:50.764Z,3.52
2018-08-22T11:24:31.734Z,3.40
2018-08-22T11:27:12.425Z,3.50
2018-08-22T11:29:53.142Z,3.70
2018-08-22T11:32:34.147Z,3.20
2018-08-22T11:35:02.422Z,3.80
2018-08-22T11:37:32.321Z,3.60
2018-08-22T11:40:02.165Z,3.50
2018-08-22T11:42:31.963Z,3.92
2018-08-22T11:45:01.694Z,3.20
2018-08-22T11:47:31.415Z,3.50
2018-08-22T11:50:01.288Z,3.80
2018-08-22T11:52:31.004Z,3.12
2018-08-22T11:55:00.844Z,3.47
2018-08-22T11:57:30.514Z,3.27
2018-08-22T12:00:01.294Z,3.20
2018-08-22T12:02:31.861Z,3.62
2018-08-22T12:05:06.981Z,3.22
2018-08-22T12:07:38.621Z,3.35
2018-08-22T12:10:11.382Z,3.55
2018-08-22T12:12:41.179Z,3.42
2018-08-22T12:15:12.412Z,3.50
2018-08-22T12:17:42.250Z,3.12
2018-08-22T12:20:11.980Z,3.80
2018-08-22T12:22:43.069Z,3.50
2018-08-22T12:25:13.618Z,2.95
2018-08-22T12:27:44.855Z,3.17
2018-08-22T12:30:14.911Z,3.50
2018-08-22T12:32:44.729Z,3.15
2018-08-22T12:35:14.608Z,3.90
2018-08-22T12:37:44.380Z,3.15
2018-08-22T12:40:19.198Z,3.20
2018-08-22T12:42:49.968Z,3.12
2018-08-22T12:45:19.968Z,3.12
2018-08-22T12:47:49.818Z,3.35
2018-08-22T12:50:19.716Z,3.45
2018-08-22T12:52:51.169Z,3.37
2018-08-22T12:55:21.332Z,3.58
2018-08-22T12:57:51.415Z,3.50
2018-08-22T13:00:21.521Z,3.30
2018-08-22T13:02:51.392Z,3.30
2018-08-22T13:05:22.270Z,3.25
2018-08-22T13:07:52.659Z,3.10
2018-08-22T13:10:23.448Z,3.27
2018-08-22T13:12:53.561Z,3.40
2018-08-22T13:15:23.364Z,3.25
2018-08-22T13:17:53.511Z,3.60
2018-08-22T13:20:23.416Z,3.30
2018-08-22T13:22:53.291Z,3.37
2018-08-22T13:25:23.216Z,3.27
2018-08-22T13:27:53.944Z,3.75
2018-08-22T13:30:24.495Z,3.50
2018-08-22T13:32:54.385Z,3.60
2018-08-22T13:35:24.250Z,3.45
2018-08-22T13:37:53.859Z,3.52
2018-08-22T13:40:23.588Z,3.40
2018-08-22T13:42:56.946Z,3.22
2018-08-22T13:45:26.889Z,3.35
2018-08-22T13:47:56.664Z,3.55
2018-08-22T13:50:27.013Z,3.20
2018-08-22T13:52:56.579Z,3.80
2018-08-22T13:55:27.714Z,3.50
2018-08-22T13:57:58.399Z,3.45
2018-08-22T14:00:28.201Z,3.45
2018-08-22T14:02:57.941Z,3.70
2018-08-22T14:05:27.944Z,3.70
2018-08-22T14:07:58.003Z,3.40
2018-08-22T14:10:27.613Z,3.67
2018-08-22T14:12:57.582Z,3.58
2018-08-22T14:15:28.453Z,3.60
2018-08-22T14:17:58.290Z,3.50
2018-08-22T14:20:28.024Z,4.42
2018-08-22T14:22:57.915Z,3.60
2018-08-22T14:25:27.810Z,3.70
2018-08-22T14:27:57.698Z,3.55
2018-08-22T14:30:27.467Z,3.47
2018-08-22T14:32:57.140Z,4.47
2018-08-22T14:35:26.900Z,2.92
2018-08-22T14:37:56.676Z,3.20
2018-08-22T14:40:26.863Z,3.47
2018-08-22T14:42:56.591Z,3.65
2018-08-22T14:45:26.341Z,3.70
2018-08-22T14:47:56.773Z,3.47
2018-08-22T14:50:27.377Z,3.25
2018-08-22T14:52:57.371Z,3.70
2018-08-22T14:55:26.885Z,3.60
2018-08-22T14:57:56.508Z,3.30
2018-08-22T15:00:26.324Z,3.25
2018-08-22T15:02:56.612Z,3.30
2018-08-22T15:05:25.982Z,3.47
2018-08-22T15:07:55.649Z,3.33
2018-08-22T15:10:25.212Z,3.30
2018-08-22T15:12:55.103Z,3.25
2018-08-22T15:15:25.553Z,3.40
2018-08-22T15:17:55.355Z,3.20
2018-08-22T15:20:25.114Z,3.10
2018-08-22T15:22:54.921Z,3.60
2018-08-22T15:25:24.742Z,3.22
2018-08-22T15:27:54.559Z,3.40
2018-08-22T15:30:24.178Z,3.60
2018-08-22T15:32:53.758Z,3.35
2018-08-22T15:35:23.477Z,3.50
2018-08-22T15:37:54.088Z,3.77
2018-08-22T15:40:24.042Z,3.35
2018-08-22T15:42:53.647Z,3.33
2018-08-22T15:45:23.161Z,3.40
2018-08-22T15:47:52.989Z,3.62
2018-08-22T15:50:22.766Z,3.50
2018-08-22T15:52:52.508Z,3.87
2018-08-22T15:55:22.212Z,3.47
2018-08-22T15:58:02.922Z,3.55
2018-08-22T16:00:56.631Z,3.58
2018-08-22T16:03:26.811Z,3.52
2018-08-22T16:05:56.837Z,3.67
2018-08-22T16:08:27.566Z,3.58
2018-08-22T16:10:57.065Z,3.27
2018-08-22T16:13:31.491Z,3.62
2018-08-22T16:16:02.917Z,3.67
2018-08-22T16:18:34.571Z,3.55
2018-08-22T16:21:06.633Z,3.20
2018-08-22T16:23:36.218Z,3.80
2018-08-22T16:26:06.044Z,3.20
2018-08-22T16:28:49.913Z,3.50
2018-08-22T16:31:19.320Z,3.70
2018-08-22T16:33:48.819Z,3.65
2018-08-22T16:36:26.209Z,3.50
2018-08-22T16:38:55.619Z,3.55
2018-08-22T16:41:25.026Z,3.02
2018-08-22T16:43:54.415Z,3.60
2018-08-22T16:46:23.838Z,3.85
2018-08-22T16:48:54.551Z,3.77
2018-08-22T16:51:24.464Z,3.17
2018-08-22T16:53:59.907Z,3.27
2018-08-22T16:56:30.483Z,3.20
2018-08-22T16:59:05.164Z,3.60
2018-08-22T17:01:34.567Z,3.60
2018-08-22T17:04:04.071Z,3.50
2018-08-22T17:06:33.573Z,3.30
2018-08-22T17:09:02.973Z,3.50
2018-08-22T17:11:32.276Z,3.52
2018-08-22T17:14:01.676Z,3.02
2018-08-22T17:16:31.171Z,3.40
2018-08-22T17:19:00.339Z,3.75
2018-08-22T17:21:29.527Z,3.40
2018-08-22T17:23:58.885Z,3.45
2018-08-22T17:26:28.380Z,3.22
2018-08-22T17:28:59.118Z,3.40
2018-08-22T17:31:29.749Z,3.35
2018-08-22T17:34:02.720Z,3.40
2018-08-22T17:36:32.025Z,3.42
2018-08-22T17:39:02.251Z,3.30
2018-08-22T17:41:31.859Z,3.15
2018-08-22T17:44:06.079Z,3.08
2018-08-22T17:46:37.567Z,3.10
2018-08-22T17:49:06.879Z,3.47
2018-08-22T17:51:43.074Z,3.25
2018-08-22T17:54:12.437Z,3.60
2018-08-22T17:56:41.758Z,3.60
2018-08-22T17:59:11.296Z,3.50
2018-08-22T18:01:41.100Z,3.75
2018-08-22T18:04:10.746Z,3.58
2018-08-22T18:06:41.240Z,3.17
2018-08-22T18:09:10.660Z,3.35
2018-08-22T18:11:40.151Z,3.72
2018-08-22T18:14:09.554Z,3.52
2018-08-22T18:16:38.781Z,3.37
2018-08-22T18:19:08.251Z,3.50
2018-08-22T18:21:44.578Z,3.10
2018-08-22T18:24:13.806Z,3.70
2018-08-22T18:26:44.343Z,3.75
2018-08-22T18:29:13.744Z,3.60
2018-08-22T18:31:43.248Z,9.83
2018-08-22T18:34:13.815Z,14.80
2018-08-22T18:36:43.182Z,5.12
2018-08-22T18:39:14.903Z,4.45
2018-08-22T18:41:44.415Z,3.37
2018-08-22T18:44:16.163Z,4.05
2018-08-22T18:46:45.601Z,3.77
2018-08-22T18:49:15.104Z,3.58
2018-08-22T18:51:45.325Z,3.65
2018-08-22T18:54:14.721Z,3.77
2018-08-22T18:56:44.335Z,3.55
2018-08-22T18:59:23.156Z,3.47
2018-08-22T19:01:52.563Z,3.62
2018-08-22T19:04:22.179Z,3.50
2018-08-22T19:06:51.797Z,3.60
2018-08-22T19:09:21.503Z,3.83
2018-08-22T19:11:51.106Z,3.72
2018-08-22T19:14:32.480Z,3.87
2018-08-22T19:17:01.938Z,3.98
2018-08-22T19:19:32.537Z,3.72
2018-08-22T19:22:02.329Z,4.12
2018-08-22T19:24:31.822Z,3.70
2018-08-22T19:27:01.518Z,3.90
2018-08-22T19:29:31.367Z,3.92
2018-08-22T19:32:00.855Z,4.03
2018-08-22T19:34:30.259Z,3.92
2018-08-22T19:36:59.664Z,3.60
2018-08-22T19:39:29.157Z,3.95
2018-08-22T19:41:58.766Z,3.60
2018-08-22T19:44:28.454Z,4.20
2018-08-22T19:46:57.875Z,3.77
2018-08-22T19:49:27.472Z,3.67
2018-08-22T19:51:56.884Z,3.70
2018-08-22T19:54:26.298Z,3.83
2018-08-22T19:56:55.687Z,4.03
2018-08-22T19:59:25.106Z,3.90
2018-08-22T20:01:54.605Z,3.72
2018-08-22T20:04:24.501Z,3.95
2018-08-22T20:06:53.890Z,3.92
2018-08-22T20:09:23.825Z,4.00
2018-08-22T20:11:53.155Z,3.75
2018-08-22T20:14:22.629Z,4.45
2018-08-22T20:16:52.011Z,3.98
2018-08-22T20:19:22.563Z,3.95
2018-08-22T20:21:52.067Z,3.77
2018-08-22T20:24:21.691Z,4.15
2018-08-22T20:26:56.345Z,4.17
2018-08-22T20:29:25.800Z,3.95
2018-08-22T20:31:55.302Z,4.25
2018-08-22T20:34:24.913Z,4.30
2018-08-22T20:36:54.412Z,4.08
2018-08-22T20:39:23.850Z,5.15
2018-08-22T20:41:57.720Z,4.10
2018-08-22T20:44:27.022Z,4.50
2018-08-22T20:46:56.531Z,4.30
2018-08-22T20:49:25.998Z,4.42
2018-08-22T20:51:55.452Z,4.60
2018-08-22T20:54:27.934Z,4.40
2018-08-22T20:57:02.303Z,4.40
2018-08-22T20:59:31.967Z,4.67
2018-08-22T21:02:05.626Z,4.55
2018-08-22T21:04:35.961Z,4.80
2018-08-22T21:07:05.774Z,4.45
2018-08-22T21:09:35.279Z,4.58
2018-08-22T21:12:04.788Z,4.60
2018-08-22T21:14:34.291Z,4.65
2018-08-22T21:17:03.793Z,4.70
2018-08-22T21:19:33.011Z,4.80
2018-08-22T21:22:02.599Z,4.62
2018-08-22T21:24:31.944Z,4.58
2018-08-22T21:27:01.301Z,4.65
2018-08-22T21:29:30.804Z,4.83
2018-08-22T21:32:00.205Z,4.72
2018-08-22T21:34:29.710Z,4.33
2018-08-22T21:36:59.215Z,4.65
2018-08-22T21:39:28.615Z,4.33
2018-08-22T21:41:58.018Z,4.60
2018-08-22T21:44:27.523Z,4.97
2018-08-22T21:47:02.249Z,4.80
2018-08-22T21:49:31.652Z,5.08
2018-08-22T21:52:01.910Z,5.03
2018-08-22T21:54:31.695Z,5.17
2018-08-22T21:57:01.168Z,5.20
2018-08-22T21:59:30.590Z,4.80
2018-08-22T22:02:06.243Z,5.22
2018-08-22T22:04:38.067Z,5.10
2018-08-22T22:07:14.156Z,5.28
2018-08-22T22:09:43.559Z,5.45
2018-08-22T22:12:18.493Z,5.30
2018-08-22T22:14:47.901Z,4.72
2018-08-22T22:17:17.400Z,4.83
2018-08-22T22:19:46.639Z,5.28
2018-08-22T22:22:15.831Z,5.10
2018-08-22T22:24:58.684Z,4.60
2018-08-22T22:27:29.192Z,4.95
2018-08-22T22:30:02.674Z,5.03
2018-08-22T22:32:32.857Z,4.55
2018-08-22T22:35:02.983Z,5.33
2018-08-22T22:37:32.305Z,5.85
2018-08-22T22:40:01.676Z,5.80
2018-08-22T22:42:31.078Z,6.15
2018-08-22T22:45:00.890Z,6.25
2018-08-22T22:47:32.227Z,6.12
2018-08-22T22:50:01.950Z,5.62
2018-08-22T22:52:40.875Z,5.03
2018-08-22T22:55:12.016Z,5.22
2018-08-22T22:57:43.189Z,4.72
2018-08-22T23:00:14.109Z,4.97
2018-08-22T23:02:44.319Z,5.22
2018-08-22T23:05:13.538Z,5.35
2018-08-22T23:07:43.528Z,5.67
2018-08-22T23:10:13.858Z,5.53
2018-08-22T23:12:49.399Z,5.13
2018-08-22T23:15:22.636Z,5.47
2018-08-22T23:17:53.984Z,5.58
2018-08-22T23:20:42.365Z,5.50
2018-08-22T23:23:31.141Z,5.73
2018-08-22T23:26:07.850Z,5.57
2018-08-22T23:28:37.320Z,5.57
2018-08-22T23:31:06.824Z,5.93
2018-08-22T23:33:36.228Z,5.53
2018-08-22T23:36:05.627Z,5.73
2018-08-22T23:38:37.549Z,5.60
2018-08-22T23:41:06.992Z,5.20
2018-08-22T23:43:41.923Z,5.70
2018-08-22T23:46:12.145Z,5.63
2018-08-22T23:48:41.854Z,5.80
2018-08-22T23:51:15.147Z,5.43
2018-08-22T23:53:47.008Z,5.53
2018-08-22T23:56:19.266Z,5.50
2018-08-22T23:58:49.219Z,5.80
